sensor_id;sensor_type;location;lat;lon;timestamp;temperature;humidity
23744;DHT22;12052;53.478;10.182;2023-07-24T00:01:10;18.00;99.90
23744;DHT22;12052;53.478;10.182;2023-07-24T00:03:36;18.00;99.90
23744;DHT22;12052;53.478;10.182;2023-07-24T00:06:01;18.00;99.90
23744;DHT22;12052;53.478;10.182;2023-07-24T00:08:27;18.00;99.90
23744;DHT22;12052;53.478;10.182;2023-07-24T00:10:53;18.00;99.90
23744;DHT22;12052;53.478;10.182;2023-07-24T00:13:19;18.00;99.90
23744;DHT22;12052;53.478;10.182;2023-07-24T00:15:44;18.00;99.90
23744;DHT22;12052;53.478;10.182;2023-07-24T00:18:10;18.00;99.90
23744;DHT22;12052;53.478;10.182;2023-07-24T00:20:36;18.00;99.90
23744;DHT22;12052;53.478;10.182;2023-07-24T00:23:01;18.00;99.90
23744;DHT22;12052;53.478;10.182;2023-07-24T00:25:27;18.00;99.90
23744;DHT22;12052;53.478;10.182;2023-07-24T00:27:52;18.00;99.90
23744;DHT22;12052;53.478;10.182;2023-07-24T00:30:18;18.00;99.90
23744;DHT22;12052;53.478;10.182;2023-07-24T00:32:43;18.10;99.90
23744;DHT22;12052;53.478;10.182;2023-07-24T00:35:09;18.10;99.90
23744;DHT22;12052;53.478;10.182;2023-07-24T00:37:35;18.10;99.90
23744;DHT22;12052;53.478;10.182;2023-07-24T00:40:01;18.10;99.90
23744;DHT22;12052;53.478;10.182;2023-07-24T00:42:27;18.10;99.90
23744;DHT22;12052;53.478;10.182;2023-07-24T00:44:52;18.10;99.90
23744;DHT22;12052;53.478;10.182;2023-07-24T00:47:18;18.10;99.90
23744;DHT22;12052;53.478;10.182;2023-07-24T00:49:44;18.10;99.90
23744;DHT22;12052;53.478;10.182;2023-07-24T00:52:10;18.00;99.90
23744;DHT22;12052;53.478;10.182;2023-07-24T00:54:36;18.00;99.90
23744;DHT22;12052;53.478;10.182;2023-07-24T00:57:03;18.00;99.90
23744;DHT22;12052;53.478;10.182;2023-07-24T00:59:30;18.00;99.90
23744;DHT22;12052;53.478;10.182;2023-07-24T01:01:55;18.00;99.90
23744;DHT22;12052;53.478;10.182;2023-07-24T01:04:22;17.90;99.90
23744;DHT22;12052;53.478;10.182;2023-07-24T01:06:47;17.90;99.90
23744;DHT22;12052;53.478;10.182;2023-07-24T01:09:13;17.90;99.90
23744;DHT22;12052;53.478;10.182;2023-07-24T01:11:47;17.90;99.90
23744;DHT22;12052;53.478;10.182;2023-07-24T01:16:45;17.80;99.90
23744;DHT22;12052;53.478;10.182;2023-07-24T01:19:20;17.80;99.90
23744;DHT22;12052;53.478;10.182;2023-07-24T01:22:03;17.80;99.90
23744;DHT22;12052;53.478;10.182;2023-07-24T01:24:39;17.70;99.90
23744;DHT22;12052;53.478;10.182;2023-07-24T01:27:09;17.70;99.90
23744;DHT22;12052;53.478;10.182;2023-07-24T01:29:34;17.70;99.90
23744;DHT22;12052;53.478;10.182;2023-07-24T01:32:00;17.80;99.90
23744;DHT22;12052;53.478;10.182;2023-07-24T01:34:25;17.80;99.90
23744;DHT22;12052;53.478;10.182;2023-07-24T01:36:51;17.80;99.90
23744;DHT22;12052;53.478;10.182;2023-07-24T01:39:18;17.80;99.90
23744;DHT22;12052;53.478;10.182;2023-07-24T01:41:45;17.80;99.90
23744;DHT22;12052;53.478;10.182;2023-07-24T01:44:11;17.80;99.90
23744;DHT22;12052;53.478;10.182;2023-07-24T01:46:37;17.90;99.90
23744;DHT22;12052;53.478;10.182;2023-07-24T01:49:03;17.90;99.90
23744;DHT22;12052;53.478;10.182;2023-07-24T01:51:28;17.90;99.90
23744;DHT22;12052;53.478;10.182;2023-07-24T01:53:54;17.90;99.90
23744;DHT22;12052;53.478;10.182;2023-07-24T01:56:20;17.90;99.90
23744;DHT22;12052;53.478;10.182;2023-07-24T01:58:45;17.90;99.90
23744;DHT22;12052;53.478;10.182;2023-07-24T02:01:11;17.90;99.90
23744;DHT22;12052;53.478;10.182;2023-07-24T02:03:36;18.00;99.90
23744;DHT22;12052;53.478;10.182;2023-07-24T02:06:04;18.00;99.90
23744;DHT22;12052;53.478;10.182;2023-07-24T02:08:30;17.90;99.90
23744;DHT22;12052;53.478;10.182;2023-07-24T02:10:55;17.90;99.90
23744;DHT22;12052;53.478;10.182;2023-07-24T02:13:21;17.90;99.90
23744;DHT22;12052;53.478;10.182;2023-07-24T02:15:46;18.00;99.90
23744;DHT22;12052;53.478;10.182;2023-07-24T02:18:12;18.00;99.90
23744;DHT22;12052;53.478;10.182;2023-07-24T02:20:38;18.00;99.90
23744;DHT22;12052;53.478;10.182;2023-07-24T02:23:03;18.00;99.90
23744;DHT22;12052;53.478;10.182;2023-07-24T02:25:29;18.00;99.90
23744;DHT22;12052;53.478;10.182;2023-07-24T02:27:54;18.10;99.90
23744;DHT22;12052;53.478;10.182;2023-07-24T02:30:20;18.10;99.90
23744;DHT22;12052;53.478;10.182;2023-07-24T02:32:45;18.10;99.90
23744;DHT22;12052;53.478;10.182;2023-07-24T02:35:11;18.10;99.90
23744;DHT22;12052;53.478;10.182;2023-07-24T02:37:36;18.10;99.90
23744;DHT22;12052;53.478;10.182;2023-07-24T02:40:02;18.10;99.90
23744;DHT22;12052;53.478;10.182;2023-07-24T02:42:28;18.10;99.90
23744;DHT22;12052;53.478;10.182;2023-07-24T02:44:53;18.10;99.90
23744;DHT22;12052;53.478;10.182;2023-07-24T02:47:19;18.10;99.90
23744;DHT22;12052;53.478;10.182;2023-07-24T02:49:45;18.10;99.90
23744;DHT22;12052;53.478;10.182;2023-07-24T02:52:10;18.10;99.90
23744;DHT22;12052;53.478;10.182;2023-07-24T02:54:36;18.10;99.90
23744;DHT22;12052;53.478;10.182;2023-07-24T02:57:01;18.10;99.90
23744;DHT22;12052;53.478;10.182;2023-07-24T02:59:29;18.10;99.90
23744;DHT22;12052;53.478;10.182;2023-07-24T03:01:54;18.10;99.90
23744;DHT22;12052;53.478;10.182;2023-07-24T03:04:20;18.10;99.90
23744;DHT22;12052;53.478;10.182;2023-07-24T03:06:46;18.10;99.90
23744;DHT22;12052;53.478;10.182;2023-07-24T03:09:11;18.10;99.90
23744;DHT22;12052;53.478;10.182;2023-07-24T03:11:37;18.00;99.90
23744;DHT22;12052;53.478;10.182;2023-07-24T03:14:02;18.00;99.90
23744;DHT22;12052;53.478;10.182;2023-07-24T03:16:28;17.90;99.90
23744;DHT22;12052;53.478;10.182;2023-07-24T03:18:54;17.90;99.90
23744;DHT22;12052;53.478;10.182;2023-07-24T03:21:20;17.90;99.90
23744;DHT22;12052;53.478;10.182;2023-07-24T03:23:46;17.90;99.90
23744;DHT22;12052;53.478;10.182;2023-07-24T03:26:12;17.90;99.90
23744;DHT22;12052;53.478;10.182;2023-07-24T03:28:37;17.80;99.90
23744;DHT22;12052;53.478;10.182;2023-07-24T03:31:03;17.80;99.90
23744;DHT22;12052;53.478;10.182;2023-07-24T03:33:28;17.80;99.90
23744;DHT22;12052;53.478;10.182;2023-07-24T03:35:54;17.70;99.90
23744;DHT22;12052;53.478;10.182;2023-07-24T03:38:20;17.70;99.90
23744;DHT22;12052;53.478;10.182;2023-07-24T03:40:46;17.60;99.90
23744;DHT22;12052;53.478;10.182;2023-07-24T03:43:12;17.60;99.90
23744;DHT22;12052;53.478;10.182;2023-07-24T03:45:38;17.60;99.90
23744;DHT22;12052;53.478;10.182;2023-07-24T03:48:04;17.50;99.90
23744;DHT22;12052;53.478;10.182;2023-07-24T03:50:29;17.50;99.90
23744;DHT22;12052;53.478;10.182;2023-07-24T03:52:55;17.50;99.90
23744;DHT22;12052;53.478;10.182;2023-07-24T03:55:20;17.50;99.90
23744;DHT22;12052;53.478;10.182;2023-07-24T03:57:46;17.50;99.90
23744;DHT22;12052;53.478;10.182;2023-07-24T04:00:12;17.50;99.90
23744;DHT22;12052;53.478;10.182;2023-07-24T04:02:38;17.40;99.90
23744;DHT22;12052;53.478;10.182;2023-07-24T04:05:05;17.40;99.90
23744;DHT22;12052;53.478;10.182;2023-07-24T04:07:30;17.40;99.90
23744;DHT22;12052;53.478;10.182;2023-07-24T04:09:56;17.40;99.90
23744;DHT22;12052;53.478;10.182;2023-07-24T04:12:21;17.40;99.90
23744;DHT22;12052;53.478;10.182;2023-07-24T04:14:47;17.40;99.90
23744;DHT22;12052;53.478;10.182;2023-07-24T04:17:14;17.40;99.90
23744;DHT22;12052;53.478;10.182;2023-07-24T04:19:40;17.40;99.90
23744;DHT22;12052;53.478;10.182;2023-07-24T04:22:05;17.40;99.90
23744;DHT22;12052;53.478;10.182;2023-07-24T04:24:31;17.40;99.90
23744;DHT22;12052;53.478;10.182;2023-07-24T04:26:56;17.40;99.90
23744;DHT22;12052;53.478;10.182;2023-07-24T04:29:22;17.40;99.90
23744;DHT22;12052;53.478;10.182;2023-07-24T04:31:50;17.50;99.90
23744;DHT22;12052;53.478;10.182;2023-07-24T04:34:16;17.50;99.90
23744;DHT22;12052;53.478;10.182;2023-07-24T04:36:41;17.50;99.90
23744;DHT22;12052;53.478;10.182;2023-07-24T04:39:07;17.60;99.90
23744;DHT22;12052;53.478;10.182;2023-07-24T04:41:36;17.60;99.90
23744;DHT22;12052;53.478;10.182;2023-07-24T04:44:01;17.70;99.90
23744;DHT22;12052;53.478;10.182;2023-07-24T04:46:27;17.70;99.90
23744;DHT22;12052;53.478;10.182;2023-07-24T04:48:52;17.80;99.90
23744;DHT22;12052;53.478;10.182;2023-07-24T04:51:18;17.80;99.90
23744;DHT22;12052;53.478;10.182;2023-07-24T04:53:44;17.80;99.90
23744;DHT22;12052;53.478;10.182;2023-07-24T04:56:10;17.80;99.90
23744;DHT22;12052;53.478;10.182;2023-07-24T04:58:36;17.90;99.90
23744;DHT22;12052;53.478;10.182;2023-07-24T05:01:05;17.90;99.90
23744;DHT22;12052;53.478;10.182;2023-07-24T05:03:31;17.90;99.90
23744;DHT22;12052;53.478;10.182;2023-07-24T05:05:57;17.90;99.90
23744;DHT22;12052;53.478;10.182;2023-07-24T05:08:23;18.00;99.90
23744;DHT22;12052;53.478;10.182;2023-07-24T05:10:56;18.00;99.90
23744;DHT22;12052;53.478;10.182;2023-07-24T05:13:21;18.00;99.90
23744;DHT22;12052;53.478;10.182;2023-07-24T05:15:47;18.00;99.90
23744;DHT22;12052;53.478;10.182;2023-07-24T05:18:13;18.10;99.90
23744;DHT22;12052;53.478;10.182;2023-07-24T05:20:38;18.10;99.90
23744;DHT22;12052;53.478;10.182;2023-07-24T05:23:07;18.20;99.90
23744;DHT22;12052;53.478;10.182;2023-07-24T05:25:33;18.30;99.90
23744;DHT22;12052;53.478;10.182;2023-07-24T05:27:58;18.40;99.90
23744;DHT22;12052;53.478;10.182;2023-07-24T05:30:24;18.50;99.90
23744;DHT22;12052;53.478;10.182;2023-07-24T05:32:49;18.60;99.90
23744;DHT22;12052;53.478;10.182;2023-07-24T05:35:15;18.80;99.90
23744;DHT22;12052;53.478;10.182;2023-07-24T05:37:40;18.90;99.90
23744;DHT22;12052;53.478;10.182;2023-07-24T05:40:07;18.90;99.90
23744;DHT22;12052;53.478;10.182;2023-07-24T05:42:32;19.00;99.90
23744;DHT22;12052;53.478;10.182;2023-07-24T05:44:58;19.00;99.90
23744;DHT22;12052;53.478;10.182;2023-07-24T05:47:23;19.00;99.90
23744;DHT22;12052;53.478;10.182;2023-07-24T05:49:49;19.10;99.90
23744;DHT22;12052;53.478;10.182;2023-07-24T05:52:15;19.00;99.90
23744;DHT22;12052;53.478;10.182;2023-07-24T05:54:40;19.00;99.90
23744;DHT22;12052;53.478;10.182;2023-07-24T05:57:06;19.10;99.90
23744;DHT22;12052;53.478;10.182;2023-07-24T05:59:31;19.10;99.90
23744;DHT22;12052;53.478;10.182;2023-07-24T06:01:57;19.20;99.90
23744;DHT22;12052;53.478;10.182;2023-07-24T06:04:23;19.20;99.90
23744;DHT22;12052;53.478;10.182;2023-07-24T06:06:48;19.20;99.90
23744;DHT22;12052;53.478;10.182;2023-07-24T06:09:14;19.20;99.90
23744;DHT22;12052;53.478;10.182;2023-07-24T06:11:41;19.20;99.90
23744;DHT22;12052;53.478;10.182;2023-07-24T06:14:06;19.20;99.90
23744;DHT22;12052;53.478;10.182;2023-07-24T06:16:32;19.20;99.90
23744;DHT22;12052;53.478;10.182;2023-07-24T06:18:57;19.20;99.90
23744;DHT22;12052;53.478;10.182;2023-07-24T06:21:23;19.20;99.90
23744;DHT22;12052;53.478;10.182;2023-07-24T06:23:48;19.30;99.90
23744;DHT22;12052;53.478;10.182;2023-07-24T06:26:14;19.20;99.90
23744;DHT22;12052;53.478;10.182;2023-07-24T06:28:39;19.30;99.90
23744;DHT22;12052;53.478;10.182;2023-07-24T06:31:05;19.40;99.90
23744;DHT22;12052;53.478;10.182;2023-07-24T06:33:31;19.40;99.90
23744;DHT22;12052;53.478;10.182;2023-07-24T06:35:56;19.40;99.90
23744;DHT22;12052;53.478;10.182;2023-07-24T06:38:22;19.40;99.90
23744;DHT22;12052;53.478;10.182;2023-07-24T06:40:47;19.40;99.90
23744;DHT22;12052;53.478;10.182;2023-07-24T06:43:13;19.30;99.90
23744;DHT22;12052;53.478;10.182;2023-07-24T06:45:39;19.30;99.90
23744;DHT22;12052;53.478;10.182;2023-07-24T06:48:04;19.30;99.90
23744;DHT22;12052;53.478;10.182;2023-07-24T06:50:30;19.30;99.90
23744;DHT22;12052;53.478;10.182;2023-07-24T06:52:56;19.30;99.90
23744;DHT22;12052;53.478;10.182;2023-07-24T06:55:21;19.30;99.90
23744;DHT22;12052;53.478;10.182;2023-07-24T06:57:47;19.30;99.90
23744;DHT22;12052;53.478;10.182;2023-07-24T07:00:13;19.30;99.90
23744;DHT22;12052;53.478;10.182;2023-07-24T07:02:39;19.40;99.90
23744;DHT22;12052;53.478;10.182;2023-07-24T07:05:05;19.40;99.90
23744;DHT22;12052;53.478;10.182;2023-07-24T07:07:30;19.50;99.90
23744;DHT22;12052;53.478;10.182;2023-07-24T07:09:56;19.50;99.90
23744;DHT22;12052;53.478;10.182;2023-07-24T07:12:22;19.50;99.90
23744;DHT22;12052;53.478;10.182;2023-07-24T07:14:47;19.50;99.90
23744;DHT22;12052;53.478;10.182;2023-07-24T07:17:13;19.60;99.90
23744;DHT22;12052;53.478;10.182;2023-07-24T07:19:38;19.60;99.90
23744;DHT22;12052;53.478;10.182;2023-07-24T07:22:04;19.60;99.90
23744;DHT22;12052;53.478;10.182;2023-07-24T07:24:30;19.60;99.90
23744;DHT22;12052;53.478;10.182;2023-07-24T07:26:55;19.70;99.90
23744;DHT22;12052;53.478;10.182;2023-07-24T07:29:21;19.70;99.90
23744;DHT22;12052;53.478;10.182;2023-07-24T07:31:46;19.60;99.90
23744;DHT22;12052;53.478;10.182;2023-07-24T07:34:12;19.60;99.90
23744;DHT22;12052;53.478;10.182;2023-07-24T07:36:38;19.60;99.90
23744;DHT22;12052;53.478;10.182;2023-07-24T07:39:03;19.50;99.90
23744;DHT22;12052;53.478;10.182;2023-07-24T07:41:29;19.60;99.90
23744;DHT22;12052;53.478;10.182;2023-07-24T07:43:54;19.50;99.90
23744;DHT22;12052;53.478;10.182;2023-07-24T07:46:20;19.50;99.90
23744;DHT22;12052;53.478;10.182;2023-07-24T07:48:46;19.40;99.90
23744;DHT22;12052;53.478;10.182;2023-07-24T07:51:12;19.40;99.90
23744;DHT22;12052;53.478;10.182;2023-07-24T07:53:37;19.30;99.90
23744;DHT22;12052;53.478;10.182;2023-07-24T07:56:04;19.30;99.90
23744;DHT22;12052;53.478;10.182;2023-07-24T07:58:30;19.20;99.90
23744;DHT22;12052;53.478;10.182;2023-07-24T08:00:55;19.20;99.90
23744;DHT22;12052;53.478;10.182;2023-07-24T08:03:21;19.20;99.90
23744;DHT22;12052;53.478;10.182;2023-07-24T08:05:47;19.10;99.90
23744;DHT22;12052;53.478;10.182;2023-07-24T08:08:13;19.10;99.90
23744;DHT22;12052;53.478;10.182;2023-07-24T08:10:39;19.10;99.90
23744;DHT22;12052;53.478;10.182;2023-07-24T08:13:05;19.20;99.90
23744;DHT22;12052;53.478;10.182;2023-07-24T08:15:36;19.20;99.90
23744;DHT22;12052;53.478;10.182;2023-07-24T08:18:04;19.30;99.90
23744;DHT22;12052;53.478;10.182;2023-07-24T08:20:35;19.30;99.90
23744;DHT22;12052;53.478;10.182;2023-07-24T08:23:01;19.30;99.90
23744;DHT22;12052;53.478;10.182;2023-07-24T08:25:27;19.40;99.90
23744;DHT22;12052;53.478;10.182;2023-07-24T08:27:52;19.40;99.90
23744;DHT22;12052;53.478;10.182;2023-07-24T08:30:18;19.40;99.90
23744;DHT22;12052;53.478;10.182;2023-07-24T08:32:44;19.50;99.90
23744;DHT22;12052;53.478;10.182;2023-07-24T08:35:09;19.60;99.90
23744;DHT22;12052;53.478;10.182;2023-07-24T08:37:35;19.50;99.90
23744;DHT22;12052;53.478;10.182;2023-07-24T08:40:01;19.60;99.90
23744;DHT22;12052;53.478;10.182;2023-07-24T08:42:28;19.60;99.90
23744;DHT22;12052;53.478;10.182;2023-07-24T08:44:54;19.70;99.90
23744;DHT22;12052;53.478;10.182;2023-07-24T08:47:21;19.70;99.90
23744;DHT22;12052;53.478;10.182;2023-07-24T08:49:49;19.80;99.90
23744;DHT22;12052;53.478;10.182;2023-07-24T08:52:16;19.70;99.90
23744;DHT22;12052;53.478;10.182;2023-07-24T08:54:42;19.70;99.90
23744;DHT22;12052;53.478;10.182;2023-07-24T08:57:08;19.70;99.90
23744;DHT22;12052;53.478;10.182;2023-07-24T08:59:34;19.70;99.90
23744;DHT22;12052;53.478;10.182;2023-07-24T09:02:00;19.70;99.90
23744;DHT22;12052;53.478;10.182;2023-07-24T09:04:26;19.80;99.90
23744;DHT22;12052;53.478;10.182;2023-07-24T09:06:51;19.90;99.90
23744;DHT22;12052;53.478;10.182;2023-07-24T09:09:18;19.90;99.90
23744;DHT22;12052;53.478;10.182;2023-07-24T09:11:51;20.00;99.90
23744;DHT22;12052;53.478;10.182;2023-07-24T09:14:24;20.20;99.90
23744;DHT22;12052;53.478;10.182;2023-07-24T09:16:50;20.40;99.90
23744;DHT22;12052;53.478;10.182;2023-07-24T09:19:19;20.50;99.90
23744;DHT22;12052;53.478;10.182;2023-07-24T09:21:45;20.40;99.90
23744;DHT22;12052;53.478;10.182;2023-07-24T09:24:12;20.60;99.90
23744;DHT22;12052;53.478;10.182;2023-07-24T09:26:53;20.70;99.90
23744;DHT22;12052;53.478;10.182;2023-07-24T09:29:18;20.90;99.90
23744;DHT22;12052;53.478;10.182;2023-07-24T09:31:44;21.20;99.90
23744;DHT22;12052;53.478;10.182;2023-07-24T09:34:17;21.50;99.90
23744;DHT22;12052;53.478;10.182;2023-07-24T09:36:44;21.60;99.90
23744;DHT22;12052;53.478;10.182;2023-07-24T09:39:10;21.60;99.90
23744;DHT22;12052;53.478;10.182;2023-07-24T09:41:40;21.60;99.90
23744;DHT22;12052;53.478;10.182;2023-07-24T09:44:06;21.50;99.90
23744;DHT22;12052;53.478;10.182;2023-07-24T09:46:32;21.40;99.90
23744;DHT22;12052;53.478;10.182;2023-07-24T09:48:58;21.30;99.90
23744;DHT22;12052;53.478;10.182;2023-07-24T09:51:24;21.30;99.90
23744;DHT22;12052;53.478;10.182;2023-07-24T09:54:15;21.20;99.90
23744;DHT22;12052;53.478;10.182;2023-07-24T09:56:40;21.20;99.90
23744;DHT22;12052;53.478;10.182;2023-07-24T09:59:07;21.10;99.90
23744;DHT22;12052;53.478;10.182;2023-07-24T10:01:34;21.20;99.90
23744;DHT22;12052;53.478;10.182;2023-07-24T10:04:01;21.20;99.90
23744;DHT22;12052;53.478;10.182;2023-07-24T10:06:27;21.30;99.90
23744;DHT22;12052;53.478;10.182;2023-07-24T10:08:54;21.40;99.90
23744;DHT22;12052;53.478;10.182;2023-07-24T10:11:20;21.40;99.90
23744;DHT22;12052;53.478;10.182;2023-07-24T10:13:47;21.30;99.90
23744;DHT22;12052;53.478;10.182;2023-07-24T10:16:13;21.30;99.90
23744;DHT22;12052;53.478;10.182;2023-07-24T10:18:44;21.30;99.90
23744;DHT22;12052;53.478;10.182;2023-07-24T10:21:11;21.40;99.90
23744;DHT22;12052;53.478;10.182;2023-07-24T10:23:40;21.30;99.90
23744;DHT22;12052;53.478;10.182;2023-07-24T10:26:07;21.40;99.90
23744;DHT22;12052;53.478;10.182;2023-07-24T10:28:37;21.20;99.90
23744;DHT22;12052;53.478;10.182;2023-07-24T10:31:20;21.10;99.90
23744;DHT22;12052;53.478;10.182;2023-07-24T10:33:46;21.00;99.90
23744;DHT22;12052;53.478;10.182;2023-07-24T10:36:11;20.90;99.90
23744;DHT22;12052;53.478;10.182;2023-07-24T10:38:42;20.90;99.90
23744;DHT22;12052;53.478;10.182;2023-07-24T10:41:09;20.90;99.90
23744;DHT22;12052;53.478;10.182;2023-07-24T10:43:51;20.90;99.90
23744;DHT22;12052;53.478;10.182;2023-07-24T10:46:19;21.00;99.90
23744;DHT22;12052;53.478;10.182;2023-07-24T10:48:49;21.10;99.90
23744;DHT22;12052;53.478;10.182;2023-07-24T10:51:15;21.10;99.90
23744;DHT22;12052;53.478;10.182;2023-07-24T10:53:46;21.20;99.90
23744;DHT22;12052;53.478;10.182;2023-07-24T10:56:12;21.50;99.90
23744;DHT22;12052;53.478;10.182;2023-07-24T10:58:38;21.70;99.90
23744;DHT22;12052;53.478;10.182;2023-07-24T11:01:04;21.90;99.90
23744;DHT22;12052;53.478;10.182;2023-07-24T11:03:30;22.00;99.90
23744;DHT22;12052;53.478;10.182;2023-07-24T11:05:58;22.20;99.90
23744;DHT22;12052;53.478;10.182;2023-07-24T11:08:24;22.30;99.90
23744;DHT22;12052;53.478;10.182;2023-07-24T11:10:52;22.10;99.90
23744;DHT22;12052;53.478;10.182;2023-07-24T11:13:19;21.90;99.90
23744;DHT22;12052;53.478;10.182;2023-07-24T11:15:46;22.20;99.90
23744;DHT22;12052;53.478;10.182;2023-07-24T11:18:12;22.40;99.90
23744;DHT22;12052;53.478;10.182;2023-07-24T11:20:51;22.60;99.90
23744;DHT22;12052;53.478;10.182;2023-07-24T11:23:18;22.50;99.90
23744;DHT22;12052;53.478;10.182;2023-07-24T11:25:44;22.10;99.90
23744;DHT22;12052;53.478;10.182;2023-07-24T11:28:11;21.90;99.90
23744;DHT22;12052;53.478;10.182;2023-07-24T11:30:38;21.80;99.90
23744;DHT22;12052;53.478;10.182;2023-07-24T11:33:06;21.60;99.90
23744;DHT22;12052;53.478;10.182;2023-07-24T11:35:33;21.50;99.90
23744;DHT22;12052;53.478;10.182;2023-07-24T11:37:59;21.40;99.90
23744;DHT22;12052;53.478;10.182;2023-07-24T11:40:53;21.40;99.90
23744;DHT22;12052;53.478;10.182;2023-07-24T11:43:21;21.70;99.90
23744;DHT22;12052;53.478;10.182;2023-07-24T11:45:48;21.90;99.90
23744;DHT22;12052;53.478;10.182;2023-07-24T11:48:17;22.00;99.90
23744;DHT22;12052;53.478;10.182;2023-07-24T11:50:48;22.00;99.90
23744;DHT22;12052;53.478;10.182;2023-07-24T11:55:47;21.80;99.90
23744;DHT22;12052;53.478;10.182;2023-07-24T11:58:15;21.70;99.90
23744;DHT22;12052;53.478;10.182;2023-07-24T12:00:41;21.70;99.90
23744;DHT22;12052;53.478;10.182;2023-07-24T12:03:07;21.80;99.90
23744;DHT22;12052;53.478;10.182;2023-07-24T12:05:43;21.90;99.90
23744;DHT22;12052;53.478;10.182;2023-07-24T12:08:10;22.00;99.90
23744;DHT22;12052;53.478;10.182;2023-07-24T12:10:40;22.20;99.90
23744;DHT22;12052;53.478;10.182;2023-07-24T12:13:06;22.40;99.90
23744;DHT22;12052;53.478;10.182;2023-07-24T12:15:32;22.40;99.90
23744;DHT22;12052;53.478;10.182;2023-07-24T12:18:05;22.70;99.90
23744;DHT22;12052;53.478;10.182;2023-07-24T12:20:31;22.80;99.90
23744;DHT22;12052;53.478;10.182;2023-07-24T12:22:57;23.10;99.90
23744;DHT22;12052;53.478;10.182;2023-07-24T12:25:23;23.00;99.90
23744;DHT22;12052;53.478;10.182;2023-07-24T12:27:49;23.10;99.90
23744;DHT22;12052;53.478;10.182;2023-07-24T12:30:14;22.80;99.90
23744;DHT22;12052;53.478;10.182;2023-07-24T12:32:40;22.70;99.90
23744;DHT22;12052;53.478;10.182;2023-07-24T12:35:07;22.80;99.90
23744;DHT22;12052;53.478;10.182;2023-07-24T12:37:33;22.80;99.90
23744;DHT22;12052;53.478;10.182;2023-07-24T12:39:59;22.90;99.90
23744;DHT22;12052;53.478;10.182;2023-07-24T12:42:24;23.20;99.90
23744;DHT22;12052;53.478;10.182;2023-07-24T12:44:50;23.10;99.90
23744;DHT22;12052;53.478;10.182;2023-07-24T12:47:15;23.40;99.90
23744;DHT22;12052;53.478;10.182;2023-07-24T12:49:41;23.50;99.90
23744;DHT22;12052;53.478;10.182;2023-07-24T12:52:07;23.70;99.90
23744;DHT22;12052;53.478;10.182;2023-07-24T12:54:33;23.70;99.90
23744;DHT22;12052;53.478;10.182;2023-07-24T12:56:59;23.70;99.90
23744;DHT22;12052;53.478;10.182;2023-07-24T12:59:25;23.50;99.90
23744;DHT22;12052;53.478;10.182;2023-07-24T13:01:50;23.40;99.90
23744;DHT22;12052;53.478;10.182;2023-07-24T13:04:16;23.30;99.90
23744;DHT22;12052;53.478;10.182;2023-07-24T13:06:42;23.60;99.90
23744;DHT22;12052;53.478;10.182;2023-07-24T13:09:07;23.70;99.90
23744;DHT22;12052;53.478;10.182;2023-07-24T13:11:33;23.70;99.90
23744;DHT22;12052;53.478;10.182;2023-07-24T13:13:59;23.60;99.90
23744;DHT22;12052;53.478;10.182;2023-07-24T13:16:24;23.70;99.90
23744;DHT22;12052;53.478;10.182;2023-07-24T13:18:50;23.50;99.90
23744;DHT22;12052;53.478;10.182;2023-07-24T13:21:16;23.60;99.90
23744;DHT22;12052;53.478;10.182;2023-07-24T13:23:41;23.50;99.90
23744;DHT22;12052;53.478;10.182;2023-07-24T13:26:07;23.50;99.90
23744;DHT22;12052;53.478;10.182;2023-07-24T13:28:34;23.40;99.90
23744;DHT22;12052;53.478;10.182;2023-07-24T13:31:09;23.30;99.90
23744;DHT22;12052;53.478;10.182;2023-07-24T13:33:35;23.20;99.90
23744;DHT22;12052;53.478;10.182;2023-07-24T13:36:01;23.10;99.90
23744;DHT22;12052;53.478;10.182;2023-07-24T13:38:26;23.10;99.90
23744;DHT22;12052;53.478;10.182;2023-07-24T13:40:52;23.20;99.90
23744;DHT22;12052;53.478;10.182;2023-07-24T13:43:17;23.10;99.90
23744;DHT22;12052;53.478;10.182;2023-07-24T13:45:44;23.00;99.90
23744;DHT22;12052;53.478;10.182;2023-07-24T13:48:09;23.00;99.90
23744;DHT22;12052;53.478;10.182;2023-07-24T13:50:35;23.00;99.90
23744;DHT22;12052;53.478;10.182;2023-07-24T13:53:00;23.00;99.90
23744;DHT22;12052;53.478;10.182;2023-07-24T13:55:26;23.00;99.90
23744;DHT22;12052;53.478;10.182;2023-07-24T13:57:51;23.00;99.90
23744;DHT22;12052;53.478;10.182;2023-07-24T14:00:17;23.10;99.90
23744;DHT22;12052;53.478;10.182;2023-07-24T14:02:43;23.10;99.90
23744;DHT22;12052;53.478;10.182;2023-07-24T14:05:08;22.90;99.90
23744;DHT22;12052;53.478;10.182;2023-07-24T14:07:34;22.90;99.90
23744;DHT22;12052;53.478;10.182;2023-07-24T14:09:59;22.90;99.90
23744;DHT22;12052;53.478;10.182;2023-07-24T14:12:25;23.00;99.90
23744;DHT22;12052;53.478;10.182;2023-07-24T14:14:50;23.00;99.90
23744;DHT22;12052;53.478;10.182;2023-07-24T14:17:16;23.00;99.90
23744;DHT22;12052;53.478;10.182;2023-07-24T14:19:41;23.00;99.90
23744;DHT22;12052;53.478;10.182;2023-07-24T14:22:07;23.00;99.90
23744;DHT22;12052;53.478;10.182;2023-07-24T14:24:33;23.00;99.90
23744;DHT22;12052;53.478;10.182;2023-07-24T14:26:58;22.90;99.90
23744;DHT22;12052;53.478;10.182;2023-07-24T14:29:24;22.80;99.90
23744;DHT22;12052;53.478;10.182;2023-07-24T14:31:49;22.80;99.90
23744;DHT22;12052;53.478;10.182;2023-07-24T14:34:15;22.70;99.90
23744;DHT22;12052;53.478;10.182;2023-07-24T14:36:40;22.80;99.90
23744;DHT22;12052;53.478;10.182;2023-07-24T14:39:06;22.70;99.90
23744;DHT22;12052;53.478;10.182;2023-07-24T14:41:33;22.80;99.90
23744;DHT22;12052;53.478;10.182;2023-07-24T14:43:59;22.90;99.90
23744;DHT22;12052;53.478;10.182;2023-07-24T14:46:24;23.10;99.90
23744;DHT22;12052;53.478;10.182;2023-07-24T14:48:50;23.30;99.90
23744;DHT22;12052;53.478;10.182;2023-07-24T14:51:16;23.30;99.90
23744;DHT22;12052;53.478;10.182;2023-07-24T14:53:41;23.50;99.90
23744;DHT22;12052;53.478;10.182;2023-07-24T14:56:07;23.50;99.90
23744;DHT22;12052;53.478;10.182;2023-07-24T14:58:32;23.50;99.90
23744;DHT22;12052;53.478;10.182;2023-07-24T15:00:59;23.50;99.90
23744;DHT22;12052;53.478;10.182;2023-07-24T15:03:24;23.50;99.90
23744;DHT22;12052;53.478;10.182;2023-07-24T15:05:50;23.50;99.90
23744;DHT22;12052;53.478;10.182;2023-07-24T15:08:17;23.40;99.90
23744;DHT22;12052;53.478;10.182;2023-07-24T15:10:43;23.40;99.90
23744;DHT22;12052;53.478;10.182;2023-07-24T15:13:10;23.20;99.90
23744;DHT22;12052;53.478;10.182;2023-07-24T15:15:36;23.20;99.90